createdAt,value
2022-09-29T00:00:18.336Z,5.20
2022-09-29T00:02:45.056Z,5.05
2022-09-29T00:05:11.916Z,5.63
2022-09-29T00:07:38.704Z,7.65
2022-09-29T00:10:05.744Z,3.88
2022-09-29T00:12:32.381Z,8.05
2022-09-29T00:14:59.070Z,6.88
2022-09-29T00:17:25.790Z,6.28
2022-09-29T00:19:52.423Z,4.10
2022-09-29T00:22:19.132Z,6.00
2022-09-29T00:24:47.743Z,4.70
2022-09-29T00:27:15.922Z,4.63
2022-09-29T00:29:42.828Z,4.18
2022-09-29T00:32:09.769Z,4.10
2022-09-29T00:34:38.025Z,5.75
2022-09-29T00:37:05.198Z,6.53
2022-09-29T00:39:31.940Z,4.50
2022-09-29T00:41:58.780Z,7.13
2022-09-29T00:44:44.493Z,4.68
2022-09-29T00:47:15.501Z,4.75
2022-09-29T00:49:51.766Z,4.70
2022-09-29T00:52:36.625Z,6.18
2022-09-29T00:55:11.037Z,5.22
2022-09-29T00:57:49.239Z,4.47
2022-09-29T01:00:16.787Z,4.80
2022-09-29T01:02:48.766Z,4.68
2022-09-29T01:05:21.036Z,5.75
2022-09-29T01:07:47.993Z,4.40
2022-09-29T01:10:17.198Z,5.63
2022-09-29T01:12:46.482Z,4.97
2022-09-29T01:15:19.463Z,4.40
2022-09-29T01:17:47.591Z,5.00
2022-09-29T01:20:22.115Z,6.50
2022-09-29T01:23:15.167Z,4.90
2022-09-29T01:26:07.011Z,7.20
2022-09-29T01:29:01.480Z,4.45
2022-09-29T01:31:38.066Z,6.50
2022-09-29T01:34:23.076Z,5.43
2022-09-29T01:37:22.331Z,4.20
2022-09-29T01:40:11.272Z,7.22
2022-09-29T01:43:01.518Z,4.60
2022-09-29T01:45:39.150Z,8.30
2022-09-29T01:48:11.968Z,7.97
2022-09-29T01:50:46.901Z,5.82
2022-09-29T01:53:20.434Z,4.55
2022-09-29T01:55:51.271Z,7.53
2022-09-29T01:58:36.479Z,9.40
2022-09-29T02:01:07.706Z,5.03
2022-09-29T02:03:41.593Z,5.43
2022-09-29T02:06:17.287Z,4.65
2022-09-29T02:08:48.634Z,5.88
2022-09-29T02:11:17.627Z,8.27
2022-09-29T02:13:48.082Z,5.00
2022-09-29T02:19:00.528Z,6.22
2022-09-29T02:21:28.156Z,7.10
2022-09-29T02:23:55.762Z,7.00
2022-09-29T02:26:24.370Z,5.25
2022-09-29T02:28:52.379Z,5.00
2022-09-29T02:31:19.781Z,5.05
2022-09-29T02:33:46.485Z,6.90
2022-09-29T02:36:31.141Z,5.10
2022-09-29T02:39:35.549Z,7.03
2022-09-29T02:42:11.102Z,6.57
2022-09-29T02:44:51.460Z,6.20
2022-09-29T02:47:18.110Z,5.35
2022-09-29T02:50:03.796Z,6.97
2022-09-29T02:52:56.139Z,10.82
2022-09-29T02:55:59.815Z,7.63
2022-09-29T02:58:38.872Z,5.13
2022-09-29T03:01:07.381Z,6.80
2022-09-29T03:03:34.495Z,7.85
2022-09-29T03:06:01.418Z,7.28
2022-09-29T03:08:28.155Z,13.45
2022-09-29T03:10:54.816Z,8.50
2022-09-29T03:13:21.645Z,6.15
2022-09-29T03:15:48.403Z,6.32
2022-09-29T03:18:16.985Z,6.40
2022-09-29T03:20:43.778Z,7.88
2022-09-29T03:23:10.576Z,11.18
2022-09-29T03:25:37.248Z,6.95
2022-09-29T03:28:03.976Z,5.97
2022-09-29T03:30:31.061Z,12.02
2022-09-29T03:32:57.749Z,7.57
2022-09-29T03:35:24.582Z,7.25
2022-09-29T03:37:51.453Z,10.23
2022-09-29T03:40:18.203Z,11.65
2022-09-29T03:42:47.374Z,8.43
2022-09-29T03:45:14.219Z,6.80
2022-09-29T03:47:40.913Z,6.03
2022-09-29T03:50:08.090Z,7.93
2022-09-29T03:52:34.871Z,6.43
2022-09-29T03:55:01.636Z,5.68
2022-09-29T03:57:28.384Z,6.22
2022-09-29T03:59:56.072Z,7.97
2022-09-29T04:02:23.278Z,9.75
2022-09-29T04:04:51.008Z,8.60
2022-09-29T04:07:17.728Z,11.98
2022-09-29T04:09:44.413Z,8.02
2022-09-29T04:12:11.213Z,5.57
2022-09-29T04:14:37.972Z,5.45
2022-09-29T04:17:04.695Z,7.72
2022-09-29T04:19:32.363Z,6.78
2022-09-29T04:21:59.159Z,5.65
2022-09-29T04:24:25.806Z,5.60
2022-09-29T04:26:52.479Z,5.18
2022-09-29T04:29:19.417Z,9.38
2022-09-29T04:31:46.261Z,5.18
2022-09-29T04:34:12.950Z,6.00
2022-09-29T04:36:39.801Z,7.60
2022-09-29T04:39:06.844Z,5.38
2022-09-29T04:41:35.986Z,7.15
2022-09-29T04:44:02.822Z,6.18
2022-09-29T04:46:29.850Z,5.43
2022-09-29T04:48:56.540Z,5.65
2022-09-29T04:51:23.297Z,5.30
2022-09-29T04:53:49.948Z,5.25
2022-09-29T04:56:16.599Z,8.90
2022-09-29T04:58:43.312Z,8.60
2022-09-29T05:01:15.163Z,8.70
2022-09-29T05:03:42.574Z,8.48
2022-09-29T05:06:10.336Z,8.68
2022-09-29T05:08:37.015Z,6.43
2022-09-29T05:11:06.466Z,11.60
2022-09-29T05:13:33.299Z,6.32
2022-09-29T05:16:00.346Z,6.15
2022-09-29T05:18:27.654Z,10.98
2022-09-29T05:21:15.766Z,9.10
2022-09-29T05:23:42.663Z,17.23
2022-09-29T05:26:13.031Z,8.15
2022-09-29T05:28:44.541Z,8.20
2022-09-29T05:31:12.071Z,8.77
2022-09-29T05:33:39.247Z,9.07
2022-09-29T05:36:07.416Z,6.50
2022-09-29T05:38:35.698Z,6.90
2022-09-29T05:41:10.996Z,6.22
2022-09-29T05:43:38.405Z,9.35
2022-09-29T05:46:07.216Z,7.28
2022-09-29T05:48:35.047Z,6.00
2022-09-29T05:51:14.088Z,6.82
2022-09-29T05:53:41.542Z,6.05
2022-09-29T05:56:19.859Z,30.75
2022-09-29T05:58:46.773Z,12.30
2022-09-29T06:01:16.453Z,14.73
2022-09-29T06:03:43.267Z,20.13
2022-09-29T06:06:12.806Z,19.60
2022-09-29T06:08:40.271Z,21.60
2022-09-29T06:11:28.695Z,24.58
2022-09-29T06:13:55.950Z,19.27
2022-09-29T06:16:26.175Z,15.10
2022-09-29T06:18:53.516Z,16.00
2022-09-29T06:21:24.377Z,13.18
2022-09-29T06:23:52.450Z,14.57
2022-09-29T06:26:24.001Z,11.82
2022-09-29T06:28:52.080Z,13.80
2022-09-29T06:31:21.291Z,10.23
2022-09-29T06:33:48.121Z,10.98
2022-09-29T06:36:44.601Z,15.88
2022-09-29T06:39:13.980Z,11.55
2022-09-29T06:41:41.559Z,23.45
2022-09-29T06:44:09.071Z,24.92
2022-09-29T06:46:35.859Z,25.13
2022-09-29T06:49:02.628Z,19.48
2022-09-29T06:51:41.717Z,19.75
2022-09-29T06:54:13.288Z,18.08
2022-09-29T06:56:40.295Z,23.50
2022-09-29T06:59:07.531Z,19.73
2022-09-29T07:01:34.770Z,20.98
2022-09-29T07:04:02.435Z,20.33
2022-09-29T07:06:30.074Z,17.83
2022-09-29T07:08:58.738Z,15.23
2022-09-29T07:11:26.640Z,15.68
2022-09-29T07:13:55.227Z,17.80
2022-09-29T07:16:24.224Z,19.23
2022-09-29T07:18:52.005Z,24.05
2022-09-29T07:21:19.144Z,21.98
2022-09-29T07:23:47.240Z,20.38
2022-09-29T07:26:16.712Z,19.95
2022-09-29T07:28:44.694Z,13.63
2022-09-29T07:31:18.053Z,17.90
2022-09-29T07:33:46.452Z,17.15
2022-09-29T07:36:14.814Z,12.68
2022-09-29T07:38:42.488Z,15.38
2022-09-29T07:41:11.698Z,12.95
2022-09-29T07:43:39.895Z,12.85
2022-09-29T07:46:07.974Z,15.45
2022-09-29T07:48:35.421Z,14.32
2022-09-29T07:51:20.816Z,12.60
2022-09-29T07:53:47.866Z,15.88
2022-09-29T07:56:20.566Z,15.07
2022-09-29T07:58:49.894Z,12.48
2022-09-29T08:01:18.087Z,13.45
2022-09-29T08:03:49.826Z,13.50
2022-09-29T08:06:16.669Z,12.45
2022-09-29T08:08:55.435Z,17.80
2022-09-29T08:11:31.953Z,14.27
2022-09-29T08:14:00.027Z,16.25
2022-09-29T08:16:27.106Z,17.08
2022-09-29T08:18:53.980Z,19.15
2022-09-29T08:21:20.720Z,17.63
2022-09-29T08:23:48.145Z,15.82
2022-09-29T08:26:27.485Z,19.08
2022-09-29T08:29:07.698Z,16.65
2022-09-29T08:31:37.301Z,19.98
2022-09-29T08:34:04.400Z,19.00
2022-09-29T08:36:31.223Z,19.08
2022-09-29T08:38:58.067Z,19.17
2022-09-29T08:41:52.099Z,21.55
2022-09-29T08:44:39.242Z,20.55
2022-09-29T08:47:10.831Z,21.67
2022-09-29T08:49:40.667Z,19.17
2022-09-29T08:52:24.689Z,21.63
2022-09-29T08:54:57.423Z,24.50
2022-09-29T08:57:25.529Z,20.30
2022-09-29T08:59:57.571Z,25.02
2022-09-29T09:02:42.415Z,24.50
2022-09-29T09:05:30.796Z,24.90
2022-09-29T09:08:32.577Z,22.60
2022-09-29T09:11:23.563Z,25.05
2022-09-29T09:14:20.788Z,25.35
2022-09-29T09:17:30.841Z,26.08
2022-09-29T09:20:16.283Z,22.38
2022-09-29T09:22:55.699Z,24.17
2022-09-29T09:25:28.194Z,28.02
2022-09-29T09:28:20.062Z,22.08
2022-09-29T09:30:53.597Z,22.58
2022-09-29T09:33:34.150Z,22.88
2022-09-29T09:39:01.279Z,22.38
2022-09-29T09:41:35.531Z,23.48
2022-09-29T09:44:16.167Z,19.55
2022-09-29T09:46:51.412Z,19.83
2022-09-29T09:49:23.513Z,19.42
2022-09-29T09:51:59.644Z,15.27
2022-09-29T09:54:47.683Z,17.05
2022-09-29T09:57:27.627Z,18.90
2022-09-29T10:00:13.841Z,20.17
2022-09-29T10:02:52.539Z,17.95
2022-09-29T10:05:39.469Z,21.30
2022-09-29T10:08:11.215Z,22.90
2022-09-29T10:10:51.323Z,16.55
2022-09-29T10:13:30.658Z,15.63
2022-09-29T10:16:15.406Z,16.88
2022-09-29T10:18:46.360Z,18.63
2022-09-29T10:21:43.360Z,13.45
2022-09-29T10:24:26.983Z,9.55
2022-09-29T10:26:56.272Z,12.10
2022-09-29T10:29:28.334Z,11.63
2022-09-29T10:32:10.436Z,15.88
2022-09-29T10:34:40.939Z,17.23
2022-09-29T10:40:01.776Z,13.13
2022-09-29T10:42:57.998Z,10.98
2022-09-29T10:45:29.969Z,11.90
2022-09-29T10:48:00.422Z,13.18
2022-09-29T10:50:36.820Z,11.80
2022-09-29T10:53:22.273Z,11.95
2022-09-29T10:55:51.959Z,6.85
2022-09-29T10:58:45.432Z,6.40
2022-09-29T11:01:19.584Z,6.68
2022-09-29T11:03:54.211Z,7.05
2022-09-29T11:06:50.264Z,6.28
2022-09-29T11:09:17.007Z,8.68
2022-09-29T11:12:02.457Z,5.50
2022-09-29T11:14:41.112Z,6.53
2022-09-29T11:17:52.045Z,8.10
2022-09-29T11:20:20.781Z,4.53
2022-09-29T11:23:26.570Z,3.50
2022-09-29T11:26:19.197Z,5.97
2022-09-29T11:29:28.881Z,7.05
2022-09-29T11:31:58.347Z,5.47
2022-09-29T11:34:53.358Z,7.40
2022-09-29T11:37:34.980Z,5.90
2022-09-29T11:40:21.184Z,6.07
2022-09-29T11:43:11.274Z,6.25
2022-09-29T11:45:58.620Z,6.45
2022-09-29T11:48:54.405Z,5.70
2022-09-29T11:51:42.222Z,3.58
2022-09-29T11:54:37.393Z,5.28
2022-09-29T11:57:37.304Z,8.52
2022-09-29T12:00:14.140Z,5.70
2022-09-29T12:02:56.557Z,4.38
2022-09-29T12:06:01.251Z,7.25
2022-09-29T12:08:49.834Z,5.63
2022-09-29T12:11:59.850Z,4.13
2022-09-29T12:14:28.674Z,4.43
2022-09-29T12:17:01.628Z,3.35
2022-09-29T12:19:30.916Z,3.30
2022-09-29T12:22:02.084Z,4.20
2022-09-29T12:24:42.631Z,2.20
2022-09-29T12:29:48.187Z,2.55
2022-09-29T12:32:28.603Z,4.35
2022-09-29T12:35:04.623Z,1.75
2022-09-29T12:37:56.542Z,2.17
2022-09-29T12:40:43.877Z,2.80
2022-09-29T12:43:21.522Z,2.63
2022-09-29T12:46:06.264Z,1.52
2022-09-29T12:48:54.221Z,1.00
2022-09-29T12:51:24.737Z,1.25
2022-09-29T12:56:52.526Z,1.08
2022-09-29T13:00:01.350Z,2.78
2022-09-29T13:02:57.757Z,1.42
2022-09-29T13:05:39.495Z,2.13
2022-09-29T13:08:31.333Z,3.03
2022-09-29T13:11:33.868Z,2.95
2022-09-29T13:14:38.124Z,3.28
2022-09-29T13:17:13.158Z,3.00
2022-09-29T13:20:05.258Z,2.53
2022-09-29T13:23:06.492Z,3.72
2022-09-29T13:25:33.107Z,2.58
2022-09-29T13:28:00.714Z,2.65
2022-09-29T13:30:45.541Z,3.97
2022-09-29T13:33:30.854Z,5.55
2022-09-29T13:35:58.442Z,4.55
2022-09-29T13:38:28.126Z,2.83
2022-09-29T13:41:32.484Z,4.28
2022-09-29T13:43:59.182Z,2.75
2022-09-29T13:46:31.992Z,2.13
2022-09-29T13:49:13.784Z,2.65
2022-09-29T13:51:55.673Z,2.90
2022-09-29T13:54:28.388Z,1.45
2022-09-29T13:57:13.410Z,2.40
2022-09-29T13:59:42.151Z,2.67
2022-09-29T14:02:33.145Z,2.90
2022-09-29T14:05:00.358Z,3.53
2022-09-29T14:07:39.838Z,2.17
2022-09-29T14:10:27.414Z,1.63
2022-09-29T14:13:19.772Z,2.72
2022-09-29T14:16:11.346Z,1.88
2022-09-29T14:18:51.500Z,3.58
2022-09-29T14:21:51.207Z,2.33
2022-09-29T14:24:37.160Z,2.27
2022-09-29T14:27:37.869Z,1.65
2022-09-29T14:30:13.355Z,3.30
2022-09-29T14:32:52.213Z,2.15
2022-09-29T14:35:30.760Z,3.78
2022-09-29T14:38:03.549Z,3.75
2022-09-29T14:40:30.995Z,3.58
2022-09-29T14:43:11.711Z,3.80
2022-09-29T14:46:42.730Z,3.28
2022-09-29T14:50:02.675Z,3.55
2022-09-29T14:52:57.330Z,4.13
2022-09-29T14:55:52.752Z,5.30
2022-09-29T14:58:58.801Z,6.57
2022-09-29T15:01:30.464Z,3.78
2022-09-29T15:04:05.434Z,4.80
2022-09-29T15:06:32.209Z,3.05
2022-09-29T15:09:17.061Z,3.63
2022-09-29T15:11:49.917Z,5.88
2022-09-29T15:14:28.194Z,3.63
2022-09-29T15:17:25.149Z,3.42
2022-09-29T15:20:26.553Z,2.65
2022-09-29T15:23:23.908Z,4.03
2022-09-29T15:25:56.220Z,3.00
2022-09-29T15:28:35.644Z,4.25
2022-09-29T15:31:17.064Z,2.45
2022-09-29T15:33:44.806Z,2.83
2022-09-29T15:36:26.395Z,2.40
2022-09-29T15:39:00.467Z,3.10
2022-09-29T15:41:33.168Z,2.53
2022-09-29T15:44:01.265Z,2.25
2022-09-29T15:46:35.965Z,2.60
2022-09-29T15:49:10.282Z,3.35
2022-09-29T15:51:37.742Z,5.15
2022-09-29T15:54:10.304Z,1.63
2022-09-29T15:56:56.768Z,2.13
2022-09-29T16:00:03.631Z,7.25
2022-09-29T16:02:38.663Z,2.08
2022-09-29T16:05:14.174Z,2.08
2022-09-29T16:07:49.203Z,3.83
2022-09-29T16:10:19.044Z,3.55
2022-09-29T16:12:53.173Z,1.98
2022-09-29T16:15:33.937Z,2.30
2022-09-29T16:18:06.240Z,2.35
2022-09-29T16:20:34.773Z,4.38
2022-09-29T16:23:20.205Z,5.45
2022-09-29T16:26:07.012Z,1.70
2022-09-29T16:28:36.223Z,4.63
2022-09-29T16:31:18.380Z,2.13
2022-09-29T16:33:53.903Z,5.25
2022-09-29T16:36:24.693Z,3.08
2022-09-29T16:38:53.716Z,4.47
2022-09-29T16:41:37.888Z,2.45
2022-09-29T16:44:09.262Z,1.73
2022-09-29T16:46:55.049Z,2.88
2022-09-29T16:49:32.294Z,2.58
2022-09-29T16:52:10.973Z,7.18
2022-09-29T16:54:46.342Z,3.25
2022-09-29T16:57:23.995Z,5.80
2022-09-29T16:59:56.450Z,3.58
2022-09-29T17:02:24.618Z,2.08
2022-09-29T17:04:52.241Z,3.45
2022-09-29T17:07:21.633Z,2.20
2022-09-29T17:09:52.554Z,13.15
2022-09-29T17:12:19.437Z,3.22
2022-09-29T17:14:46.766Z,11.75
2022-09-29T17:17:27.984Z,7.68
2022-09-29T17:19:56.553Z,7.20
2022-09-29T17:22:36.843Z,3.13
2022-09-29T17:25:05.527Z,3.20
2022-09-29T17:27:51.173Z,7.03
2022-09-29T17:30:22.764Z,3.42
2022-09-29T17:32:52.598Z,3.15
2022-09-29T17:35:21.411Z,2.47
2022-09-29T17:37:48.446Z,10.18
2022-09-29T17:40:34.131Z,3.97
2022-09-29T17:43:01.469Z,8.30
2022-09-29T17:45:30.056Z,7.75
2022-09-29T17:47:56.868Z,6.63
2022-09-29T17:50:45.588Z,4.47
2022-09-29T17:53:14.111Z,11.68
2022-09-29T17:55:42.319Z,5.55
2022-09-29T17:58:12.770Z,12.57
2022-09-29T18:03:12.813Z,10.60
2022-09-29T18:05:41.702Z,9.32
2022-09-29T18:08:14.661Z,6.65
2022-09-29T18:10:59.174Z,10.32
2022-09-29T18:13:27.968Z,8.85
2022-09-29T18:15:56.139Z,8.90
2022-09-29T18:18:23.451Z,4.45
2022-09-29T18:20:50.854Z,7.22
2022-09-29T18:23:19.391Z,5.15
2022-09-29T18:25:50.321Z,4.78
2022-09-29T18:28:18.371Z,10.68
2022-09-29T18:30:48.643Z,7.93
2022-09-29T18:33:17.545Z,10.40
2022-09-29T18:35:46.642Z,13.52
2022-09-29T18:38:13.463Z,6.72
2022-09-29T18:40:40.493Z,15.50
2022-09-29T18:43:07.801Z,7.70
2022-09-29T18:45:41.632Z,6.72
2022-09-29T18:48:12.329Z,4.75
2022-09-29T18:50:45.063Z,6.32
2022-09-29T18:53:14.562Z,9.38
2022-09-29T18:55:41.726Z,5.00
2022-09-29T18:58:18.222Z,5.15
2022-09-29T19:00:54.950Z,6.90
2022-09-29T19:03:23.631Z,11.25
2022-09-29T19:05:51.147Z,8.90
2022-09-29T19:08:19.155Z,11.20
2022-09-29T19:10:52.245Z,6.95
2022-09-29T19:13:19.754Z,13.95
2022-09-29T19:15:47.149Z,12.73
2022-09-29T19:18:23.684Z,35.42
2022-09-29T19:20:52.123Z,18.05
2022-09-29T19:23:21.600Z,20.90
2022-09-29T19:25:50.058Z,14.50
2022-09-29T19:28:18.413Z,47.63
2022-09-29T19:30:45.926Z,23.38
2022-09-29T19:33:16.692Z,11.43
2022-09-29T19:35:51.020Z,7.93
2022-09-29T19:38:18.776Z,7.85
2022-09-29T19:40:46.698Z,7.88
2022-09-29T19:43:14.371Z,12.05
2022-09-29T19:45:41.941Z,7.05
2022-09-29T19:48:14.100Z,4.95
2022-09-29T19:50:59.941Z,7.78
2022-09-29T19:53:27.006Z,6.10
2022-09-29T19:55:53.658Z,3.35
2022-09-29T19:58:21.151Z,5.47
2022-09-29T20:00:47.953Z,10.48
2022-09-29T20:03:15.280Z,2.95
2022-09-29T20:05:42.079Z,10.82
2022-09-29T20:08:11.503Z,12.30
2022-09-29T20:10:38.396Z,6.47
2022-09-29T20:13:05.090Z,5.75
2022-09-29T20:15:31.824Z,6.32
2022-09-29T20:17:58.636Z,4.30
2022-09-29T20:20:25.684Z,10.30
2022-09-29T20:22:53.417Z,5.78
2022-09-29T20:25:21.095Z,8.82
2022-09-29T20:27:51.167Z,12.95
2022-09-29T20:30:20.665Z,6.60
2022-09-29T20:32:47.959Z,11.18
2022-09-29T20:35:14.694Z,6.25
2022-09-29T20:37:42.599Z,7.60
2022-09-29T20:40:10.324Z,15.13
2022-09-29T20:42:38.418Z,7.25
2022-09-29T20:45:06.064Z,8.32
2022-09-29T20:47:33.133Z,7.68
2022-09-29T20:49:59.800Z,7.60
2022-09-29T20:52:26.453Z,6.43
2022-09-29T20:54:53.187Z,4.63
2022-09-29T20:57:19.814Z,4.15
2022-09-29T20:59:47.327Z,6.35
2022-09-29T21:02:14.080Z,4.50
2022-09-29T21:04:42.452Z,5.63
2022-09-29T21:07:29.336Z,2.83
2022-09-29T21:09:56.026Z,5.10
2022-09-29T21:12:22.834Z,4.43
2022-09-29T21:14:49.853Z,2.25
2022-09-29T21:17:16.754Z,2.38
2022-09-29T21:19:43.640Z,5.15
2022-09-29T21:22:10.681Z,4.97
2022-09-29T21:24:39.265Z,4.78
2022-09-29T21:27:06.612Z,1.90
2022-09-29T21:29:33.798Z,6.60
2022-09-29T21:32:00.880Z,10.50
2022-09-29T21:34:27.788Z,5.15
2022-09-29T21:36:54.536Z,4.90
2022-09-29T21:39:21.878Z,5.95
2022-09-29T21:41:48.717Z,4.07
2022-09-29T21:44:21.603Z,6.07
2022-09-29T21:46:48.957Z,2.55
2022-09-29T21:49:16.669Z,6.95
2022-09-29T21:51:46.688Z,2.97
2022-09-29T21:54:16.452Z,4.65
2022-09-29T21:56:45.432Z,6.38
2022-09-29T21:59:15.403Z,5.22
2022-09-29T22:01:43.447Z,7.97
2022-09-29T22:04:10.992Z,7.70
2022-09-29T22:06:39.301Z,3.03
2022-09-29T22:09:07.941Z,2.38
2022-09-29T22:11:36.559Z,5.30
2022-09-29T22:14:03.866Z,3.83
2022-09-29T22:16:32.663Z,6.75
2022-09-29T22:19:32.778Z,1.80
2022-09-29T22:24:16.753Z,3.92
2022-09-29T22:26:44.587Z,4.55
2022-09-29T22:29:11.551Z,9.00
2022-09-29T22:31:40.191Z,4.03
2022-09-29T22:34:07.833Z,4.25
2022-09-29T22:36:35.315Z,5.40
2022-09-29T22:39:03.772Z,14.02
2022-09-29T22:41:33.169Z,8.52
2022-09-29T22:44:00.833Z,8.25
2022-09-29T22:46:29.843Z,5.15
2022-09-29T22:48:57.270Z,6.60
2022-09-29T22:51:24.368Z,3.35
2022-09-29T22:53:51.706Z,9.35
2022-09-29T22:56:21.817Z,2.25
2022-09-29T22:58:49.577Z,4.32
2022-09-29T23:01:19.770Z,5.15
2022-09-29T23:03:48.860Z,2.92
2022-09-29T23:06:15.858Z,2.65
2022-09-29T23:08:43.000Z,10.38
2022-09-29T23:11:20.351Z,5.05
2022-09-29T23:13:47.898Z,12.20
2022-09-29T23:16:16.618Z,3.53
2022-09-29T23:18:45.540Z,5.20
2022-09-29T23:21:14.891Z,3.88
2022-09-29T23:23:41.694Z,2.30
2022-09-29T23:26:08.562Z,3.50
2022-09-29T23:28:35.771Z,5.10
2022-09-29T23:31:07.244Z,4.60
2022-09-29T23:33:34.259Z,3.88
2022-09-29T23:36:21.669Z,3.85
2022-09-29T23:39:07.314Z,3.95
2022-09-29T23:41:35.715Z,2.40
2022-09-29T23:44:05.288Z,2.50
2022-09-29T23:46:35.868Z,1.92
2022-09-29T23:51:34.510Z,4.35
2022-09-29T23:54:01.261Z,3.13
2022-09-29T23:56:28.699Z,4.15
2022-09-29T23:58:55.885Z,10.07
